createdAt,value
2019-02-23T00:00:45.282Z,43.02
2019-02-23T00:03:14.721Z,42.53
2019-02-23T00:05:44.634Z,55.20
2019-02-23T00:08:14.137Z,50.88
2019-02-23T00:10:43.668Z,48.90
2019-02-23T00:13:13.589Z,32.08
2019-02-23T00:15:43.097Z,35.52
2019-02-23T00:18:12.854Z,33.23
2019-02-23T00:20:42.426Z,23.10
2019-02-23T00:23:11.866Z,26.20
2019-02-23T00:25:41.565Z,37.23
2019-02-23T00:28:10.987Z,29.55
2019-02-23T00:30:40.577Z,36.45
2019-02-23T00:33:10.168Z,31.90
2019-02-23T00:35:39.601Z,29.18
2019-02-23T00:38:09.225Z,29.07
2019-02-23T00:40:38.891Z,25.25
2019-02-23T00:43:08.374Z,19.10
2019-02-23T00:45:37.952Z,27.87
2019-02-23T00:48:07.365Z,36.90
2019-02-23T00:50:36.856Z,58.20
2019-02-23T00:53:06.460Z,44.77
2019-02-23T00:55:36.014Z,72.78
2019-02-23T00:58:05.432Z,56.83
2019-02-23T01:00:34.861Z,53.28
2019-02-23T01:03:04.471Z,48.87
2019-02-23T01:05:34.005Z,55.80
2019-02-23T01:08:03.481Z,62.30
2019-02-23T01:10:32.970Z,66.90
2019-02-23T01:13:02.723Z,49.75
2019-02-23T01:15:32.432Z,51.40
2019-02-23T01:18:02.340Z,53.20
2019-02-23T01:20:31.825Z,38.05
2019-02-23T01:23:01.355Z,50.67
2019-02-23T01:25:30.992Z,46.45
2019-02-23T01:28:00.758Z,42.25
2019-02-23T01:30:30.380Z,30.25
2019-02-23T01:32:59.948Z,37.03
2019-02-23T01:35:29.470Z,37.30
2019-02-23T01:37:59.185Z,31.87
2019-02-23T01:40:28.811Z,24.32
2019-02-23T01:42:58.357Z,18.02
2019-02-23T01:45:27.842Z,17.85
2019-02-23T01:47:57.618Z,73.00
2019-02-23T01:50:27.251Z,51.73
2019-02-23T01:52:56.787Z,39.85
2019-02-23T01:55:26.224Z,58.28
2019-02-23T01:57:55.638Z,25.12
2019-02-23T02:00:25.789Z,29.32
2019-02-23T02:02:55.214Z,26.70
2019-02-23T02:05:24.753Z,21.68
2019-02-23T02:07:54.173Z,17.67
2019-02-23T02:10:23.933Z,27.00
2019-02-23T02:12:53.346Z,47.60
2019-02-23T02:15:23.132Z,403.10
2019-02-23T02:17:52.628Z,183.40
2019-02-23T02:20:22.077Z,98.97
2019-02-23T02:22:51.522Z,73.95
2019-02-23T02:25:21.187Z,54.83
2019-02-23T02:27:50.731Z,47.25
2019-02-23T02:30:20.330Z,45.08
2019-02-23T02:32:49.884Z,38.73
2019-02-23T02:35:19.458Z,32.75
2019-02-23T02:37:48.993Z,31.27
2019-02-23T02:40:18.666Z,31.17
2019-02-23T02:42:48.475Z,24.07
2019-02-23T02:45:18.224Z,21.55
2019-02-23T02:47:47.714Z,21.73
2019-02-23T02:50:24.119Z,22.02
2019-02-23T02:52:48.574Z,23.40
2019-02-23T02:55:18.184Z,19.82
2019-02-23T02:57:47.817Z,22.95
2019-02-23T03:00:17.262Z,20.95
2019-02-23T03:02:46.799Z,21.12
2019-02-23T03:05:16.313Z,23.92
2019-02-23T03:07:47.351Z,41.05
2019-02-23T03:10:16.797Z,38.38
2019-02-23T03:12:46.336Z,25.35
2019-02-23T03:15:16.009Z,28.87
2019-02-23T03:17:45.534Z,31.23
2019-02-23T03:20:15.078Z,22.13
2019-02-23T03:22:44.612Z,28.73
2019-02-23T03:25:14.402Z,25.23
2019-02-23T03:27:44.124Z,21.10
2019-02-23T03:30:13.606Z,25.02
2019-02-23T03:32:43.241Z,24.43
2019-02-23T03:35:12.723Z,28.70
2019-02-23T03:37:42.345Z,23.15
2019-02-23T03:40:11.960Z,25.65
2019-02-23T03:42:41.568Z,24.15
2019-02-23T03:45:11.310Z,25.08
2019-02-23T03:47:40.857Z,21.07
2019-02-23T03:50:10.493Z,20.88
2019-02-23T03:52:40.196Z,25.52
2019-02-23T03:55:09.704Z,25.55
2019-02-23T03:57:39.348Z,21.77
2019-02-23T04:00:10.447Z,21.55
2019-02-23T04:02:39.931Z,24.10
2019-02-23T04:05:09.689Z,26.17
2019-02-23T04:07:39.189Z,32.90
2019-02-23T04:10:09.033Z,24.87
2019-02-23T04:12:38.713Z,28.80
2019-02-23T04:15:08.621Z,25.05
2019-02-23T04:17:39.651Z,29.07
2019-02-23T04:20:09.237Z,33.58
2019-02-23T04:22:39.015Z,34.50
2019-02-23T04:25:09.026Z,29.23
2019-02-23T04:27:38.495Z,27.17
2019-02-23T04:30:08.995Z,27.62
2019-02-23T04:32:38.625Z,29.37
2019-02-23T04:35:08.043Z,25.88
2019-02-23T04:37:37.691Z,24.85
2019-02-23T04:40:07.956Z,27.05
2019-02-23T04:42:37.418Z,25.95
2019-02-23T04:45:08.013Z,20.35
2019-02-23T04:47:37.557Z,30.27
2019-02-23T04:50:09.656Z,27.50
2019-02-23T04:52:39.332Z,36.70
2019-02-23T04:55:09.508Z,28.12
2019-02-23T04:57:39.070Z,38.38
2019-02-23T05:00:14.354Z,31.30
2019-02-23T05:02:43.898Z,33.75
2019-02-23T05:05:14.006Z,35.08
2019-02-23T05:07:43.606Z,39.55
2019-02-23T05:10:13.398Z,47.98
2019-02-23T05:12:43.187Z,41.92
2019-02-23T05:15:12.669Z,39.80
2019-02-23T05:17:42.265Z,31.17
2019-02-23T05:20:11.952Z,31.20
2019-02-23T05:22:41.427Z,41.15
2019-02-23T05:25:11.147Z,43.45
2019-02-23T05:27:40.625Z,38.42
2019-02-23T05:30:12.308Z,41.35
2019-02-23T05:32:42.103Z,49.85
2019-02-23T05:35:13.224Z,41.40
2019-02-23T05:37:42.763Z,46.10
2019-02-23T05:40:13.157Z,43.50
2019-02-23T05:42:42.762Z,35.40
2019-02-23T05:45:12.176Z,38.00
2019-02-23T05:47:41.732Z,46.40
2019-02-23T05:50:11.150Z,46.55
2019-02-23T05:52:40.615Z,52.55
2019-02-23T05:55:10.115Z,39.90
2019-02-23T05:57:39.759Z,36.88
2019-02-23T06:00:12.126Z,38.73
2019-02-23T06:02:44.761Z,40.38
2019-02-23T06:05:12.882Z,38.92
2019-02-23T06:07:42.637Z,37.60
2019-02-23T06:10:12.318Z,36.58
2019-02-23T06:12:41.878Z,38.65
2019-02-23T06:15:12.676Z,34.55
2019-02-23T06:17:42.362Z,45.08
2019-02-23T06:20:11.895Z,46.60
2019-02-23T06:22:41.558Z,43.52
2019-02-23T06:25:11.059Z,40.85
2019-02-23T06:27:40.908Z,41.15
2019-02-23T06:30:12.621Z,43.00
2019-02-23T06:32:42.123Z,56.70
2019-02-23T06:35:11.699Z,63.87
2019-02-23T06:37:41.246Z,79.72
2019-02-23T06:40:11.795Z,145.20
2019-02-23T06:42:41.377Z,177.05
2019-02-23T06:45:12.531Z,126.40
2019-02-23T06:47:41.999Z,145.55
2019-02-23T06:50:11.744Z,159.70
2019-02-23T06:52:41.561Z,115.97
2019-02-23T06:55:11.085Z,19.65
2019-02-23T06:57:40.895Z,13.95
2019-02-23T07:00:15.139Z,17.50
2019-02-23T07:02:44.799Z,20.45
2019-02-23T07:05:14.232Z,16.55
2019-02-23T07:07:43.885Z,16.07
2019-02-23T07:10:14.389Z,17.25
2019-02-23T07:12:44.029Z,23.25
2019-02-23T07:15:13.486Z,29.75
2019-02-23T07:17:43.148Z,66.07
2019-02-23T07:20:12.751Z,221.97
2019-02-23T07:22:42.384Z,49.42
2019-02-23T07:25:11.956Z,57.08
2019-02-23T07:27:41.439Z,55.20
2019-02-23T07:30:13.120Z,62.78
2019-02-23T07:32:42.621Z,78.83
2019-02-23T07:35:12.261Z,68.10
2019-02-23T07:37:41.724Z,116.60
2019-02-23T07:40:16.298Z,85.72
2019-02-23T07:42:45.745Z,65.03
2019-02-23T07:45:15.352Z,63.20
2019-02-23T07:47:44.875Z,74.77
2019-02-23T07:50:15.786Z,59.80
2019-02-23T07:52:45.300Z,59.48
2019-02-23T07:55:14.771Z,41.58
2019-02-23T07:57:44.241Z,27.90
2019-02-23T08:00:14.263Z,31.50
2019-02-23T08:02:43.820Z,31.20
2019-02-23T08:05:13.677Z,35.48
2019-02-23T08:07:43.281Z,49.40
2019-02-23T08:10:13.197Z,41.05
2019-02-23T08:12:42.584Z,35.52
2019-02-23T08:15:12.516Z,36.53
2019-02-23T08:17:41.951Z,31.55
2019-02-23T08:20:13.056Z,34.10
2019-02-23T08:22:42.660Z,28.15
2019-02-23T08:25:14.600Z,31.30
2019-02-23T08:27:44.029Z,33.70
2019-02-23T08:30:16.293Z,38.33
2019-02-23T08:32:45.837Z,39.23
2019-02-23T08:35:15.310Z,44.70
2019-02-23T08:37:44.780Z,35.80
2019-02-23T08:40:16.048Z,32.00
2019-02-23T08:42:45.586Z,31.50
2019-02-23T08:45:15.020Z,39.55
2019-02-23T08:47:44.654Z,37.23
2019-02-23T08:50:15.299Z,47.75
2019-02-23T08:52:49.056Z,47.85
2019-02-23T08:55:16.357Z,30.77
2019-02-23T08:57:46.117Z,50.83
2019-02-23T09:00:20.677Z,42.93
2019-02-23T09:02:50.596Z,33.23
2019-02-23T09:05:20.065Z,32.30
2019-02-23T09:07:49.698Z,31.80
2019-02-23T09:10:19.348Z,39.67
2019-02-23T09:12:49.008Z,32.53
2019-02-23T09:15:18.488Z,40.28
2019-02-23T09:17:47.950Z,31.52
2019-02-23T09:20:28.261Z,19.67
2019-02-23T09:22:59.512Z,22.65
2019-02-23T09:25:19.885Z,16.45
2019-02-23T09:27:49.470Z,9.88
2019-02-23T09:30:18.881Z,12.75
2019-02-23T09:32:48.484Z,16.02
2019-02-23T09:35:17.975Z,12.65
2019-02-23T09:37:47.601Z,8.38
2019-02-23T09:40:18.974Z,11.28
2019-02-23T09:42:48.662Z,14.58
2019-02-23T09:45:18.158Z,15.28
2019-02-23T09:47:47.752Z,10.82
2019-02-23T09:50:17.243Z,13.45
2019-02-23T09:52:46.778Z,12.43
2019-02-23T09:55:16.235Z,9.10
2019-02-23T09:57:45.767Z,20.95
2019-02-23T10:00:15.292Z,26.87
2019-02-23T10:02:44.700Z,19.90
2019-02-23T10:05:14.241Z,14.87
2019-02-23T10:07:43.884Z,14.18
2019-02-23T10:10:13.489Z,14.50
2019-02-23T10:12:43.099Z,13.45
2019-02-23T10:15:12.628Z,9.60
2019-02-23T10:17:42.081Z,9.10
2019-02-23T10:20:13.084Z,13.25
2019-02-23T10:22:42.500Z,11.18
2019-02-23T10:25:12.044Z,14.63
2019-02-23T10:27:41.685Z,9.33
2019-02-23T10:30:13.554Z,14.63
2019-02-23T10:32:43.153Z,12.15
2019-02-23T10:35:13.724Z,13.62
2019-02-23T10:37:43.131Z,9.83
2019-02-23T10:40:13.302Z,13.75
2019-02-23T10:42:42.954Z,15.32
2019-02-23T10:45:13.392Z,16.60
2019-02-23T10:47:42.891Z,14.38
2019-02-23T10:50:14.202Z,10.58
2019-02-23T10:52:43.772Z,14.05
2019-02-23T10:55:14.737Z,9.43
2019-02-23T10:57:44.147Z,15.43
2019-02-23T11:00:17.871Z,14.68
2019-02-23T11:02:47.590Z,10.15
2019-02-23T11:05:17.459Z,12.53
2019-02-23T11:07:47.287Z,11.12
2019-02-23T11:10:17.915Z,15.40
2019-02-23T11:12:47.391Z,12.43
2019-02-23T11:15:19.118Z,13.62
2019-02-23T11:17:48.703Z,14.68
2019-02-23T11:20:18.360Z,11.45
2019-02-23T11:22:48.217Z,6.75
2019-02-23T11:25:18.127Z,11.70
2019-02-23T11:27:47.947Z,10.80
2019-02-23T11:30:17.418Z,6.33
2019-02-23T11:32:47.242Z,6.97
2019-02-23T11:35:17.646Z,7.12
2019-02-23T11:37:47.453Z,7.08
2019-02-23T11:40:17.328Z,10.75
2019-02-23T11:42:46.733Z,9.90
2019-02-23T11:45:16.226Z,9.53
2019-02-23T11:47:45.821Z,12.98
2019-02-23T11:50:15.658Z,14.50
2019-02-23T11:52:45.131Z,12.93
2019-02-23T11:55:15.288Z,8.65
2019-02-23T11:57:44.869Z,12.18
2019-02-23T12:00:15.167Z,8.63
2019-02-23T12:02:52.124Z,20.25
2019-02-23T12:05:15.691Z,9.23
2019-02-23T12:07:45.269Z,8.95
2019-02-23T12:10:16.482Z,9.65
2019-02-23T12:12:46.055Z,14.98
2019-02-23T12:15:15.821Z,12.13
2019-02-23T12:17:45.430Z,11.40
2019-02-23T12:20:15.169Z,14.63
2019-02-23T12:22:44.628Z,34.10
2019-02-23T12:25:16.197Z,15.65
2019-02-23T12:27:45.635Z,27.90
2019-02-23T12:30:15.335Z,20.55
2019-02-23T12:32:44.807Z,16.15
2019-02-23T12:35:14.332Z,21.75
2019-02-23T12:37:43.939Z,22.75
2019-02-23T12:40:13.660Z,37.40
2019-02-23T12:42:43.231Z,50.58
2019-02-23T12:45:13.584Z,35.33
2019-02-23T12:47:43.139Z,44.65
2019-02-23T12:50:13.494Z,16.73
2019-02-23T12:52:43.105Z,11.48
2019-02-23T12:55:12.741Z,12.53
2019-02-23T12:57:42.299Z,12.47
2019-02-23T13:00:14.770Z,12.18
2019-02-23T13:02:44.199Z,15.78
2019-02-23T13:05:13.661Z,15.58
2019-02-23T13:07:43.437Z,16.02
2019-02-23T13:10:13.526Z,12.55
2019-02-23T13:12:58.846Z,17.45
2019-02-23T13:16:00.594Z,15.88
2019-02-23T13:18:53.846Z,13.55
2019-02-23T13:21:41.565Z,14.93
2019-02-23T13:24:27.797Z,13.50
2019-02-23T13:27:06.736Z,15.08
2019-02-23T13:29:57.577Z,14.00
2019-02-23T13:32:30.474Z,17.90
2019-02-23T13:35:21.493Z,14.55
2019-02-23T13:38:03.823Z,12.65
2019-02-23T13:40:45.148Z,15.38
2019-02-23T13:43:23.879Z,11.68
2019-02-23T13:46:14.470Z,15.08
2019-02-23T13:49:02.383Z,17.45
2019-02-23T13:51:50.278Z,14.20
2019-02-23T13:54:39.158Z,13.40
2019-02-23T13:57:36.419Z,12.80
2019-02-23T14:00:24.048Z,12.05
2019-02-23T14:03:11.908Z,11.50
2019-02-23T14:05:44.653Z,11.28
2019-02-23T14:08:36.913Z,8.53
2019-02-23T14:11:15.619Z,18.73
2019-02-23T14:13:51.039Z,16.75
2019-02-23T14:16:42.216Z,9.83
2019-02-23T14:19:17.873Z,10.72
2019-02-23T14:22:11.721Z,11.93
2019-02-23T14:25:01.176Z,9.83
2019-02-23T14:27:53.140Z,12.03
2019-02-23T14:30:44.073Z,12.82
2019-02-23T14:33:48.701Z,17.73
2019-02-23T14:36:55.035Z,12.03
2019-02-23T14:39:36.559Z,12.18
2019-02-23T14:42:30.396Z,11.85
2019-02-23T14:45:23.359Z,12.50
2019-02-23T14:48:18.591Z,13.60
2019-02-23T14:51:20.847Z,16.27
2019-02-23T14:54:11.665Z,28.87
2019-02-23T14:57:17.946Z,14.87
2019-02-23T14:59:59.716Z,23.67
2019-02-23T15:03:04.640Z,12.00
2019-02-23T15:06:07.846Z,14.05
2019-02-23T15:08:57.440Z,12.03
2019-02-23T15:11:46.783Z,12.23
2019-02-23T15:14:25.322Z,17.35
2019-02-23T15:17:13.169Z,11.85
2019-02-23T15:19:46.219Z,12.98
2019-02-23T15:22:21.951Z,11.63
2019-02-23T15:25:12.847Z,16.82
2019-02-23T15:27:57.242Z,17.40
2019-02-23T15:30:44.285Z,44.13
2019-02-23T15:33:28.758Z,40.80
2019-02-23T15:36:03.380Z,19.02
2019-02-23T15:38:55.562Z,22.15
2019-02-23T15:41:46.184Z,36.70
2019-02-23T15:44:22.079Z,21.37
2019-02-23T15:47:09.026Z,19.30
2019-02-23T15:49:38.666Z,18.07
2019-02-23T15:52:08.842Z,14.18
2019-02-23T15:54:38.445Z,35.63
2019-02-23T15:57:08.161Z,111.08
2019-02-23T15:59:37.588Z,36.13
2019-02-23T16:02:07.251Z,38.63
2019-02-23T16:04:36.814Z,30.27
2019-02-23T16:07:06.493Z,24.15
2019-02-23T16:09:36.307Z,27.95
2019-02-23T16:12:05.996Z,19.73
2019-02-23T16:14:35.856Z,32.93
2019-02-23T16:17:05.426Z,17.80
2019-02-23T16:19:35.094Z,19.10
2019-02-23T16:22:04.628Z,17.40
2019-02-23T16:24:34.178Z,16.30
2019-02-23T16:27:03.928Z,21.77
2019-02-23T16:29:38.640Z,20.02
2019-02-23T16:32:04.855Z,22.85
2019-02-23T16:34:34.581Z,29.75
2019-02-23T16:37:04.300Z,25.50
2019-02-23T16:39:33.828Z,34.75
2019-02-23T16:42:03.332Z,24.32
2019-02-23T16:44:32.799Z,28.77
2019-02-23T16:47:02.447Z,27.13
2019-02-23T16:49:32.121Z,34.67
2019-02-23T16:52:01.616Z,24.80
2019-02-23T16:54:31.328Z,69.47
2019-02-23T16:57:00.789Z,53.25
2019-02-23T16:59:30.454Z,53.38
2019-02-23T17:01:59.935Z,42.43
2019-02-23T17:04:29.489Z,34.65
2019-02-23T17:06:58.984Z,36.15
2019-02-23T17:09:28.663Z,39.15
2019-02-23T17:12:01.776Z,20.88
2019-02-23T17:14:30.219Z,37.60
2019-02-23T17:16:59.781Z,27.73
2019-02-23T17:19:30.037Z,33.80
2019-02-23T17:21:59.526Z,53.42
2019-02-23T17:24:29.095Z,104.67
2019-02-23T17:26:58.521Z,31.52
2019-02-23T17:29:28.023Z,24.30
2019-02-23T17:31:57.689Z,26.27
2019-02-23T17:34:27.261Z,32.88
2019-02-23T17:36:56.926Z,28.67
2019-02-23T17:39:26.481Z,25.62
2019-02-23T17:41:56.035Z,50.80
2019-02-23T17:44:25.700Z,57.65
2019-02-23T17:46:56.996Z,66.33
2019-02-23T17:49:26.481Z,51.70
2019-02-23T17:51:55.945Z,61.05
2019-02-23T17:54:25.403Z,55.38
2019-02-23T17:56:55.164Z,44.33
2019-02-23T17:59:24.733Z,25.37
2019-02-23T18:01:54.425Z,54.50
2019-02-23T18:04:23.961Z,40.45
2019-02-23T18:06:53.567Z,33.85
2019-02-23T18:09:23.120Z,38.55
2019-02-23T18:11:52.624Z,55.98
2019-02-23T18:14:22.075Z,56.18
2019-02-23T18:16:51.656Z,47.05
2019-02-23T18:19:21.394Z,48.05
2019-02-23T18:21:50.928Z,45.63
2019-02-23T18:24:20.473Z,49.75
2019-02-23T18:26:50.122Z,35.45
2019-02-23T18:29:19.632Z,33.50
2019-02-23T18:31:49.220Z,30.08
2019-02-23T18:34:18.798Z,36.50
2019-02-23T18:36:48.300Z,28.17
2019-02-23T18:39:18.075Z,28.47
2019-02-23T18:41:47.614Z,33.63
2019-02-23T18:44:17.111Z,36.00
2019-02-23T18:46:46.524Z,40.75
2019-02-23T18:49:16.057Z,29.52
2019-02-23T18:51:45.793Z,43.25
2019-02-23T18:54:15.705Z,50.98
2019-02-23T18:56:45.423Z,50.80
2019-02-23T18:59:14.934Z,38.48
2019-02-23T19:01:44.642Z,36.25
2019-02-23T19:04:14.113Z,36.98
2019-02-23T19:06:43.954Z,39.92
2019-02-23T19:09:13.579Z,34.65
2019-02-23T19:11:43.200Z,42.35
2019-02-23T19:14:12.658Z,35.13
2019-02-23T19:16:42.200Z,34.98
2019-02-23T19:19:11.623Z,32.50
2019-02-23T19:21:41.085Z,39.38
2019-02-23T19:24:10.878Z,42.38
2019-02-23T19:26:40.548Z,32.73
2019-02-23T19:29:09.959Z,30.55
2019-02-23T19:31:39.826Z,34.50
2019-02-23T19:34:09.532Z,35.90
2019-02-23T19:36:39.085Z,31.42
2019-02-23T19:39:08.646Z,31.62
2019-02-23T19:41:38.247Z,38.98
2019-02-23T19:44:07.926Z,43.83
2019-02-23T19:46:40.746Z,36.58
2019-02-23T19:49:10.236Z,33.75
2019-02-23T19:51:40.110Z,42.73
2019-02-23T19:54:09.750Z,42.93
2019-02-23T19:56:46.656Z,38.67
2019-02-23T19:59:10.929Z,32.80
2019-02-23T20:01:40.601Z,30.20
2019-02-23T20:04:10.116Z,36.45
2019-02-23T20:06:39.846Z,34.55
2019-02-23T20:09:09.395Z,36.55
2019-02-23T20:11:38.866Z,26.40
2019-02-23T20:14:08.343Z,29.77
2019-02-23T20:16:37.998Z,25.92
2019-02-23T20:19:07.601Z,32.38
2019-02-23T20:21:37.155Z,31.17
2019-02-23T20:24:06.704Z,22.62
2019-02-23T20:26:36.437Z,23.60
2019-02-23T20:29:05.952Z,30.52
2019-02-23T20:31:35.371Z,27.67
2019-02-23T20:34:04.937Z,34.78
2019-02-23T20:36:34.670Z,30.27
2019-02-23T20:39:04.995Z,28.23
2019-02-23T20:41:34.478Z,27.60
2019-02-23T20:44:03.959Z,21.75
2019-02-23T20:46:33.453Z,34.55
2019-02-23T20:49:03.075Z,30.37
2019-02-23T20:51:32.610Z,28.00
2019-02-23T20:54:02.131Z,32.70
2019-02-23T20:56:31.828Z,30.82
2019-02-23T20:59:01.294Z,32.67
2019-02-23T21:01:30.963Z,31.68
2019-02-23T21:04:00.395Z,33.85
2019-02-23T21:06:30.041Z,33.65
2019-02-23T21:08:59.592Z,30.82
2019-02-23T21:11:29.199Z,26.40
2019-02-23T21:13:58.785Z,24.10
2019-02-23T21:16:28.594Z,28.25
2019-02-23T21:18:58.278Z,30.23
2019-02-23T21:21:27.784Z,26.65
2019-02-23T21:23:57.337Z,32.10
2019-02-23T21:26:26.847Z,28.80
2019-02-23T21:28:56.293Z,24.95
2019-02-23T21:31:25.931Z,40.20
2019-02-23T21:33:55.396Z,32.90
2019-02-23T21:36:24.934Z,38.73
2019-02-23T21:38:54.388Z,28.52
2019-02-23T21:41:23.888Z,32.17
2019-02-23T21:43:53.468Z,33.58
2019-02-23T21:46:23.022Z,33.38
2019-02-23T21:48:52.578Z,35.08
2019-02-23T21:51:22.153Z,32.13
2019-02-23T21:53:51.708Z,37.00
2019-02-23T21:56:21.593Z,27.82
2019-02-23T21:58:52.175Z,33.50
2019-02-23T22:01:21.802Z,34.98
2019-02-23T22:03:51.359Z,36.05
2019-02-23T22:06:20.852Z,23.30
2019-02-23T22:08:50.785Z,37.30
2019-02-23T22:11:20.501Z,32.05
2019-02-23T22:13:49.988Z,31.00
2019-02-23T22:16:19.583Z,26.52
2019-02-23T22:18:49.144Z,36.45
2019-02-23T22:21:18.829Z,45.33
2019-02-23T22:23:48.447Z,28.70
2019-02-23T22:26:17.885Z,31.40
2019-02-23T22:28:47.652Z,33.95
2019-02-23T22:31:17.109Z,30.05
2019-02-23T22:33:46.520Z,25.17
2019-02-23T22:36:16.049Z,27.85
2019-02-23T22:38:45.745Z,23.67
2019-02-23T22:41:15.583Z,30.43
2019-02-23T22:43:45.054Z,32.17
2019-02-23T22:46:14.504Z,33.02
2019-02-23T22:48:44.056Z,29.20
2019-02-23T22:51:13.706Z,35.13
2019-02-23T22:53:43.359Z,32.35
2019-02-23T22:56:13.015Z,25.00
2019-02-23T22:58:42.561Z,29.32
2019-02-23T23:01:12.262Z,28.55
2019-02-23T23:03:41.756Z,34.18
2019-02-23T23:06:11.452Z,27.90
2019-02-23T23:08:40.989Z,31.00
2019-02-23T23:11:10.415Z,28.42
2019-02-23T23:13:40.074Z,22.55
2019-02-23T23:16:09.770Z,25.65
2019-02-23T23:18:39.548Z,27.73
2019-02-23T23:21:09.115Z,24.85
2019-02-23T23:23:38.704Z,24.45
2019-02-23T23:26:08.260Z,24.80
2019-02-23T23:28:37.975Z,29.98
2019-02-23T23:31:07.503Z,26.42
2019-02-23T23:33:37.051Z,25.95
2019-02-23T23:36:06.651Z,31.35
2019-02-23T23:38:36.084Z,32.63
2019-02-23T23:41:05.669Z,29.10
2019-02-23T23:43:35.275Z,27.62
2019-02-23T23:46:04.741Z,35.15
2019-02-23T23:48:34.155Z,29.90
2019-02-23T23:51:04.052Z,35.45
2019-02-23T23:53:33.843Z,29.15
2019-02-23T23:56:03.294Z,27.42
2019-02-23T23:58:32.720Z,21.62
